createdAt,value
2022-09-18T00:00:21.788Z,56.20
2022-09-18T00:01:21.836Z,55.15
2022-09-18T00:02:21.877Z,57.78
2022-09-18T00:03:21.804Z,58.36
2022-09-18T00:04:21.780Z,56.90
2022-09-18T00:05:21.744Z,59.48
2022-09-18T00:06:21.744Z,59.86
2022-09-18T00:07:21.730Z,57.47
2022-09-18T00:08:21.754Z,58.78
2022-09-18T00:09:21.735Z,55.56
2022-09-18T00:10:21.711Z,60.12
2022-09-18T00:11:21.788Z,55.41
2022-09-18T00:12:21.695Z,55.80
2022-09-18T00:13:21.690Z,55.15
2022-09-18T00:14:21.700Z,55.68
2022-09-18T00:15:21.677Z,57.26
2022-09-18T00:16:21.895Z,59.48
2022-09-18T00:17:21.651Z,59.54
2022-09-18T00:18:21.641Z,55.05
2022-09-18T00:19:21.642Z,56.71
2022-09-18T00:20:21.649Z,58.11
2022-09-18T00:21:21.649Z,54.99
2022-09-18T00:22:21.608Z,54.67
2022-09-18T00:23:21.601Z,56.57
2022-09-18T00:24:21.584Z,55.91
2022-09-18T00:25:21.605Z,53.64
2022-09-18T00:26:21.575Z,53.81
2022-09-18T00:27:21.665Z,55.79
2022-09-18T00:28:21.563Z,56.46
2022-09-18T00:29:21.563Z,54.66
2022-09-18T00:30:21.547Z,56.64
2022-09-18T00:31:21.641Z,57.20
2022-09-18T00:32:21.526Z,56.36
2022-09-18T00:33:21.518Z,58.36
2022-09-18T00:34:21.504Z,56.38
2022-09-18T00:35:21.498Z,56.30
2022-09-18T00:36:21.516Z,54.98
2022-09-18T00:37:21.480Z,56.64
2022-09-18T00:38:21.493Z,55.58
2022-09-18T00:39:21.469Z,56.88
2022-09-18T00:40:21.508Z,58.61
2022-09-18T00:41:21.483Z,55.90
2022-09-18T00:42:21.444Z,57.42
2022-09-18T00:43:21.526Z,56.04
2022-09-18T00:44:21.446Z,55.85
2022-09-18T00:45:21.428Z,54.10
2022-09-18T00:46:21.485Z,57.61
2022-09-18T00:47:21.404Z,57.67
2022-09-18T00:48:21.398Z,57.53
2022-09-18T00:49:21.442Z,55.52
2022-09-18T00:50:21.390Z,55.47
2022-09-18T00:51:21.368Z,55.18
2022-09-18T00:52:21.357Z,56.87
2022-09-18T00:53:21.358Z,54.17
2022-09-18T00:54:21.353Z,58.13
2022-09-18T00:55:21.393Z,59.00
2022-09-18T00:56:21.329Z,58.37
2022-09-18T00:57:21.329Z,54.14
2022-09-18T00:58:21.325Z,56.58
2022-09-18T00:59:21.402Z,56.84
2022-09-18T01:00:21.312Z,55.69
2022-09-18T01:01:21.365Z,55.49
2022-09-18T01:02:21.339Z,53.82
2022-09-18T01:03:21.284Z,57.13
2022-09-18T01:04:21.272Z,57.57
2022-09-18T01:05:21.259Z,55.96
2022-09-18T01:06:21.246Z,55.90
2022-09-18T01:07:21.269Z,56.94
2022-09-18T01:08:21.236Z,57.07
2022-09-18T01:09:28.363Z,54.78
2022-09-18T01:10:22.228Z,54.59
2022-09-18T01:11:21.210Z,54.43
2022-09-18T01:12:21.220Z,56.36
2022-09-18T01:13:21.200Z,60.18
2022-09-18T01:14:21.185Z,56.71
2022-09-18T01:15:21.267Z,56.03
2022-09-18T01:16:21.213Z,56.43
2022-09-18T01:17:21.186Z,57.64
2022-09-18T01:18:21.151Z,56.96
2022-09-18T01:19:21.145Z,56.89
2022-09-18T01:20:21.131Z,56.35
2022-09-18T01:21:21.122Z,54.07
2022-09-18T01:22:21.120Z,56.75
2022-09-18T01:23:21.146Z,56.90
2022-09-18T01:24:21.105Z,53.80
2022-09-18T01:25:21.102Z,55.53
2022-09-18T01:26:21.094Z,60.74
2022-09-18T01:27:21.077Z,57.24
2022-09-18T01:28:21.090Z,57.81
2022-09-18T01:29:21.062Z,54.88
2022-09-18T01:30:21.050Z,57.43
2022-09-18T01:31:21.211Z,55.92
2022-09-18T01:32:21.033Z,56.52
2022-09-18T01:33:21.029Z,56.92
2022-09-18T01:34:21.041Z,58.03
2022-09-18T01:35:42.491Z,54.63
2022-09-18T01:36:21.992Z,55.74
2022-09-18T01:37:20.986Z,55.93
2022-09-18T01:38:20.983Z,55.25
2022-09-18T01:39:20.979Z,57.10
2022-09-18T01:40:21.040Z,56.67
2022-09-18T01:41:20.955Z,54.99
2022-09-18T01:42:20.949Z,56.84
2022-09-18T01:43:20.937Z,56.71
2022-09-18T01:44:20.939Z,55.87
2022-09-18T01:45:20.950Z,56.42
2022-09-18T01:46:20.982Z,54.36
2022-09-18T01:47:20.988Z,54.32
2022-09-18T01:48:20.892Z,59.03
2022-09-18T01:49:20.887Z,56.20
2022-09-18T01:50:20.881Z,58.15
2022-09-18T01:51:20.872Z,56.74
2022-09-18T01:52:20.887Z,57.48
2022-09-18T01:53:20.860Z,56.04
2022-09-18T01:54:20.852Z,57.49
2022-09-18T01:55:20.845Z,55.92
2022-09-18T01:56:20.858Z,56.98
2022-09-18T01:57:20.828Z,57.30
2022-09-18T01:58:20.818Z,55.47
2022-09-18T01:59:20.819Z,56.20
2022-09-18T02:00:20.803Z,56.25
2022-09-18T02:01:20.867Z,58.62
2022-09-18T02:02:20.957Z,56.70
2022-09-18T02:03:20.859Z,56.42
2022-09-18T02:04:20.770Z,56.98
2022-09-18T02:05:20.758Z,54.58
2022-09-18T02:06:20.776Z,53.77
2022-09-18T02:07:20.777Z,55.63
2022-09-18T02:08:20.732Z,56.08
2022-09-18T02:09:20.728Z,57.80
2022-09-18T02:10:20.719Z,55.42
2022-09-18T02:11:20.714Z,55.83
2022-09-18T02:12:20.710Z,55.04
2022-09-18T02:13:20.720Z,56.91
2022-09-18T02:14:20.687Z,56.47
2022-09-18T02:15:20.686Z,54.96
2022-09-18T02:16:20.719Z,56.01
2022-09-18T02:17:20.664Z,58.32
2022-09-18T02:18:20.652Z,58.08
2022-09-18T02:19:20.755Z,55.22
2022-09-18T02:20:20.712Z,55.36
2022-09-18T02:21:20.631Z,55.48
2022-09-18T02:22:20.631Z,56.06
2022-09-18T02:23:20.617Z,57.29
2022-09-18T02:24:20.616Z,54.63
2022-09-18T02:25:20.630Z,54.89
2022-09-18T02:26:20.589Z,55.64
2022-09-18T02:27:20.587Z,54.91
2022-09-18T02:28:20.571Z,54.94
2022-09-18T02:29:20.615Z,57.56
2022-09-18T02:30:20.560Z,56.28
2022-09-18T02:31:20.587Z,56.09
2022-09-18T02:32:20.537Z,57.33
2022-09-18T02:33:20.532Z,60.16
2022-09-18T02:34:20.522Z,54.22
2022-09-18T02:35:20.631Z,54.74
2022-09-18T02:36:20.505Z,54.51
2022-09-18T02:37:20.508Z,54.68
2022-09-18T02:38:20.500Z,55.87
2022-09-18T02:39:20.487Z,56.15
2022-09-18T02:40:20.536Z,56.92
2022-09-18T02:41:20.499Z,53.72
2022-09-18T02:42:20.484Z,56.66
2022-09-18T02:43:20.450Z,55.48
2022-09-18T02:44:20.436Z,60.93
2022-09-18T02:45:20.437Z,54.84
2022-09-18T02:46:20.459Z,57.12
2022-09-18T02:47:20.420Z,56.67
2022-09-18T02:48:21.499Z,58.51
2022-09-18T02:49:20.412Z,54.43
2022-09-18T02:50:20.400Z,57.02
2022-09-18T02:51:20.477Z,55.20
2022-09-18T02:52:20.378Z,59.43
2022-09-18T02:53:20.396Z,57.66
2022-09-18T02:54:20.360Z,57.64
2022-09-18T02:55:20.361Z,58.04
2022-09-18T02:56:20.346Z,55.12
2022-09-18T02:57:20.335Z,57.78
2022-09-18T02:58:20.343Z,54.87
2022-09-18T02:59:20.324Z,57.37
2022-09-18T03:00:20.315Z,56.66
2022-09-18T03:01:20.353Z,58.50
2022-09-18T03:02:20.475Z,56.77
2022-09-18T03:03:20.303Z,56.11
2022-09-18T03:04:20.278Z,57.59
2022-09-18T03:05:20.276Z,54.84
2022-09-18T03:06:20.272Z,54.45
2022-09-18T03:07:20.350Z,58.38
2022-09-18T03:08:20.269Z,56.54
2022-09-18T03:09:20.248Z,54.60
2022-09-18T03:10:20.231Z,56.97
2022-09-18T03:11:20.228Z,60.63
2022-09-18T03:12:20.204Z,57.20
2022-09-18T03:13:20.211Z,54.25
2022-09-18T03:14:20.254Z,56.74
2022-09-18T03:15:20.184Z,55.14
2022-09-18T03:16:20.235Z,56.90
2022-09-18T03:17:20.175Z,56.47
2022-09-18T03:18:20.154Z,54.24
2022-09-18T03:19:20.155Z,55.66
2022-09-18T03:20:20.170Z,59.38
2022-09-18T03:21:20.149Z,57.12
2022-09-18T03:22:20.120Z,56.61
2022-09-18T03:23:20.211Z,55.69
2022-09-18T03:24:20.105Z,56.43
2022-09-18T03:25:20.097Z,59.40
2022-09-18T03:26:20.107Z,60.07
2022-09-18T03:27:20.093Z,54.64
2022-09-18T03:28:20.079Z,56.70
2022-09-18T03:29:20.078Z,57.39
2022-09-18T03:30:20.070Z,57.13
2022-09-18T03:31:20.094Z,55.86
2022-09-18T03:32:20.088Z,60.07
2022-09-18T03:33:20.044Z,58.16
2022-09-18T03:34:20.027Z,55.14
2022-09-18T03:35:20.023Z,56.39
2022-09-18T03:36:20.004Z,56.77
2022-09-18T03:37:20.000Z,58.18
2022-09-18T03:38:20.003Z,55.58
2022-09-18T03:39:20.075Z,55.60
2022-09-18T03:40:20.054Z,57.20
2022-09-18T03:41:19.966Z,57.99
2022-09-18T03:42:19.965Z,54.88
2022-09-18T03:43:19.946Z,54.92
2022-09-18T03:44:19.966Z,58.43
2022-09-18T03:45:19.933Z,57.75
2022-09-18T03:46:19.999Z,57.19
2022-09-18T03:47:19.920Z,56.44
2022-09-18T03:48:19.914Z,57.81
2022-09-18T03:49:19.903Z,57.73
2022-09-18T03:50:19.916Z,58.22
2022-09-18T03:51:19.888Z,55.69
2022-09-18T03:52:19.869Z,57.86
2022-09-18T03:53:19.880Z,57.95
2022-09-18T03:54:19.863Z,57.16
2022-09-18T03:55:19.958Z,57.19
2022-09-18T03:56:19.842Z,57.81
2022-09-18T03:57:19.825Z,56.51
2022-09-18T03:58:19.820Z,58.42
2022-09-18T03:59:19.837Z,57.36
2022-09-18T04:00:19.808Z,58.63
2022-09-18T04:01:19.805Z,57.79
2022-09-18T04:02:19.789Z,55.91
2022-09-18T04:03:19.833Z,56.06
2022-09-18T04:04:19.785Z,59.25
2022-09-18T04:05:20.259Z,57.76
2022-09-18T04:06:19.787Z,57.67
2022-09-18T04:07:19.757Z,58.25
2022-09-18T04:08:19.741Z,56.26
2022-09-18T04:09:19.725Z,58.48
2022-09-18T04:10:19.722Z,57.30
2022-09-18T04:11:19.820Z,59.59
2022-09-18T04:12:19.719Z,57.10
2022-09-18T04:13:19.696Z,58.22
2022-09-18T04:14:19.685Z,55.84
2022-09-18T04:15:19.686Z,57.74
2022-09-18T04:16:19.728Z,57.66
2022-09-18T04:17:19.693Z,57.16
2022-09-18T04:18:19.660Z,57.73
2022-09-18T04:19:19.666Z,57.21
2022-09-18T04:20:19.655Z,55.18
2022-09-18T04:21:19.644Z,59.07
2022-09-18T04:22:19.653Z,55.94
2022-09-18T04:23:19.626Z,58.08
2022-09-18T04:24:19.610Z,55.12
2022-09-18T04:25:19.611Z,58.33
2022-09-18T04:26:19.596Z,58.11
2022-09-18T04:27:19.707Z,59.55
2022-09-18T04:28:19.633Z,60.71
2022-09-18T04:29:19.577Z,57.06
2022-09-18T04:30:19.572Z,58.49
2022-09-18T04:31:19.631Z,60.31
2022-09-18T04:32:19.541Z,60.45
2022-09-18T04:33:19.562Z,56.54
2022-09-18T04:34:19.539Z,56.06
2022-09-18T04:35:19.518Z,57.66
2022-09-18T04:36:19.516Z,57.33
2022-09-18T04:37:19.502Z,56.33
2022-09-18T04:38:19.527Z,58.53
2022-09-18T04:39:19.494Z,58.75
2022-09-18T04:40:19.574Z,55.99
2022-09-18T04:41:19.476Z,58.64
2022-09-18T04:42:19.470Z,60.58
2022-09-18T04:43:19.567Z,58.85
2022-09-18T04:44:19.451Z,58.91
2022-09-18T04:45:19.443Z,57.21
2022-09-18T04:46:19.478Z,57.84
2022-09-18T04:47:19.427Z,60.50
2022-09-18T04:48:19.417Z,59.74
2022-09-18T04:49:19.421Z,59.02
2022-09-18T04:50:19.394Z,56.38
2022-09-18T04:51:19.407Z,59.41
2022-09-18T04:52:19.384Z,55.87
2022-09-18T04:53:19.388Z,60.03
2022-09-18T04:54:19.394Z,56.90
2022-09-18T04:55:19.353Z,59.44
2022-09-18T04:56:19.360Z,58.07
2022-09-18T04:57:19.336Z,60.09
2022-09-18T04:58:19.334Z,60.35
2022-09-18T04:59:19.410Z,58.10
2022-09-18T05:00:19.349Z,60.41
2022-09-18T05:01:19.420Z,63.46
2022-09-18T05:02:19.373Z,64.64
2022-09-18T05:03:20.586Z,61.59
2022-09-18T05:04:19.279Z,59.59
2022-09-18T05:05:19.269Z,60.38
2022-09-18T05:06:19.311Z,61.13
2022-09-18T05:07:19.262Z,58.54
2022-09-18T05:08:19.251Z,58.79
2022-09-18T05:09:19.240Z,59.54
2022-09-18T05:10:19.232Z,60.31
2022-09-18T05:11:19.386Z,62.62
2022-09-18T05:12:20.473Z,60.38
2022-09-18T05:13:19.216Z,59.69
2022-09-18T05:14:19.373Z,58.63
2022-09-18T05:15:19.193Z,57.44
2022-09-18T05:16:19.256Z,59.37
2022-09-18T05:17:19.170Z,59.21
2022-09-18T05:18:19.621Z,58.07
2022-09-18T05:19:19.167Z,58.26
2022-09-18T05:20:19.146Z,60.69
2022-09-18T05:21:19.840Z,59.26
2022-09-18T05:22:19.137Z,58.05
2022-09-18T05:23:19.121Z,57.02
2022-09-18T05:24:19.143Z,57.62
2022-09-18T05:25:19.288Z,63.92
2022-09-18T05:26:20.246Z,57.69
2022-09-18T05:29:58.450Z,59.74
2022-09-18T05:31:19.694Z,59.04
2022-09-18T05:31:58.754Z,57.94
2022-09-18T05:32:58.858Z,59.48
2022-09-18T05:34:28.673Z,57.94
2022-09-18T05:35:02.774Z,54.98
2022-09-18T05:36:15.094Z,59.29
2022-09-18T05:36:58.096Z,60.40
2022-09-18T05:38:21.582Z,59.76
2022-09-18T05:38:58.601Z,57.94
2022-09-18T05:40:05.667Z,61.09
2022-09-18T05:41:09.678Z,60.02
2022-09-18T05:42:22.102Z,56.94
2022-09-18T05:43:01.078Z,64.06
2022-09-18T05:44:00.480Z,58.78
2022-09-18T05:45:01.712Z,60.64
2022-09-18T05:46:05.804Z,61.41
2022-09-18T05:47:04.410Z,57.86
2022-09-18T05:48:04.721Z,59.92
2022-09-18T05:48:59.203Z,59.97
2022-09-18T05:49:58.694Z,60.97
2022-09-18T05:50:58.101Z,60.38
2022-09-18T05:52:22.599Z,60.03
2022-09-18T05:52:58.695Z,58.84
2022-09-18T05:54:00.662Z,56.06
2022-09-18T05:55:04.837Z,60.10
2022-09-18T05:55:59.085Z,58.16
2022-09-18T05:57:00.081Z,60.62
2022-09-18T05:57:59.082Z,60.87
2022-09-18T05:58:58.124Z,58.36
2022-09-18T05:59:58.623Z,60.97
2022-09-18T06:00:59.698Z,60.41
2022-09-18T06:08:44.300Z,58.63
2022-09-18T06:09:37.308Z,59.73
2022-09-18T06:10:37.281Z,61.66
2022-09-18T06:11:37.315Z,60.19
2022-09-18T06:12:37.266Z,62.37
2022-09-18T06:13:37.266Z,60.16
2022-09-18T06:14:37.250Z,59.51
2022-09-18T06:15:37.279Z,57.93
2022-09-18T06:16:41.476Z,59.95
2022-09-18T06:17:38.229Z,62.05
2022-09-18T06:18:37.210Z,61.89
2022-09-18T06:19:37.209Z,60.77
2022-09-18T06:20:37.278Z,63.81
2022-09-18T06:21:37.220Z,62.00
2022-09-18T06:22:37.177Z,62.17
2022-09-18T06:23:37.177Z,60.31
2022-09-18T06:24:38.479Z,61.69
2022-09-18T06:25:37.148Z,61.69
2022-09-18T06:26:37.147Z,61.64
2022-09-18T06:27:37.162Z,61.74
2022-09-18T06:28:37.168Z,60.24
2022-09-18T06:29:37.121Z,60.44
2022-09-18T06:30:37.113Z,59.60
2022-09-18T06:31:37.189Z,62.75
2022-09-18T06:32:37.099Z,62.70
2022-09-18T06:33:37.082Z,61.50
2022-09-18T06:34:38.881Z,59.20
2022-09-18T06:35:37.096Z,59.81
2022-09-18T06:36:37.143Z,62.16
2022-09-18T06:37:37.046Z,60.52
2022-09-18T06:38:37.032Z,61.09
2022-09-18T06:39:37.025Z,60.26
2022-09-18T06:40:37.114Z,60.29
2022-09-18T06:41:37.011Z,59.04
2022-09-18T06:42:37.010Z,61.89
2022-09-18T06:43:37.010Z,63.26
2022-09-18T06:44:37.028Z,62.02
2022-09-18T06:45:36.983Z,63.86
2022-09-18T06:46:37.072Z,61.31
2022-09-18T06:47:37.034Z,61.11
2022-09-18T06:48:36.952Z,61.29
2022-09-18T06:49:36.943Z,63.41
2022-09-18T06:50:36.963Z,61.18
2022-09-18T06:51:36.964Z,61.34
2022-09-18T06:52:37.017Z,63.84
2022-09-18T06:53:36.946Z,64.35
2022-09-18T06:54:36.931Z,61.97
2022-09-18T06:55:36.921Z,61.93
2022-09-18T06:56:36.897Z,62.89
2022-09-18T06:57:36.907Z,60.92
2022-09-18T06:58:36.876Z,62.57
2022-09-18T06:59:36.859Z,60.76
2022-09-18T07:00:36.924Z,59.45
2022-09-18T07:01:36.881Z,61.82
2022-09-18T07:02:36.933Z,61.88
2022-09-18T07:03:36.837Z,62.96
2022-09-18T07:04:36.826Z,63.33
2022-09-18T07:05:36.820Z,59.70
2022-09-18T07:06:37.368Z,63.50
2022-09-18T07:07:36.804Z,63.20
2022-09-18T07:08:36.908Z,62.44
2022-09-18T07:09:36.789Z,59.53
2022-09-18T07:10:36.783Z,62.01
2022-09-18T07:11:36.784Z,62.52
2022-09-18T07:12:36.764Z,61.42
2022-09-18T07:13:36.761Z,60.50
2022-09-18T07:14:36.767Z,65.16
2022-09-18T07:15:36.746Z,64.81
2022-09-18T07:16:36.792Z,62.76
2022-09-18T07:17:36.719Z,61.00
2022-09-18T07:18:36.758Z,63.61
2022-09-18T07:19:36.700Z,64.20
2022-09-18T07:20:36.784Z,64.01
2022-09-18T07:21:36.689Z,62.96
2022-09-18T07:22:36.733Z,61.76
2022-09-18T07:23:36.676Z,63.21
2022-09-18T07:24:36.739Z,61.90
2022-09-18T07:25:36.658Z,61.90
2022-09-18T07:26:36.667Z,60.89
2022-09-18T07:27:36.639Z,60.15
2022-09-18T07:28:36.652Z,63.03
2022-09-18T07:29:36.623Z,61.94
2022-09-18T07:30:36.654Z,62.04
2022-09-18T07:31:36.698Z,63.80
2022-09-18T07:32:36.594Z,62.17
2022-09-18T07:33:36.593Z,62.79
2022-09-18T07:34:36.596Z,60.33
2022-09-18T07:35:36.578Z,62.13
2022-09-18T07:36:36.557Z,64.71
2022-09-18T07:37:36.592Z,63.03
2022-09-18T07:38:36.566Z,60.49
2022-09-18T07:39:36.566Z,64.80
2022-09-18T07:40:36.686Z,62.95
2022-09-18T07:41:36.525Z,62.07
2022-09-18T07:42:36.514Z,64.36
2022-09-18T07:43:36.516Z,63.40
2022-09-18T07:44:36.501Z,64.13
2022-09-18T07:45:36.509Z,62.86
2022-09-18T07:46:36.540Z,64.67
2022-09-18T07:47:36.499Z,63.18
2022-09-18T07:48:36.453Z,65.83
2022-09-18T07:49:36.459Z,62.89
2022-09-18T07:50:36.496Z,62.35
2022-09-18T07:51:36.449Z,64.05
2022-09-18T07:52:36.429Z,64.25
2022-09-18T07:53:36.536Z,64.07
2022-09-18T07:54:36.417Z,62.91
2022-09-18T07:55:36.426Z,61.18
2022-09-18T07:56:36.533Z,64.33
2022-09-18T07:57:36.494Z,63.48
2022-09-18T07:58:36.385Z,60.68
2022-09-18T07:59:36.394Z,61.12
2022-09-18T08:00:36.361Z,63.16
2022-09-18T08:01:36.446Z,65.12
2022-09-18T08:02:36.511Z,66.25
2022-09-18T08:03:41.029Z,64.78
2022-09-18T08:04:37.343Z,62.72
2022-09-18T08:05:36.333Z,64.20
2022-09-18T08:06:36.318Z,65.71
2022-09-18T08:07:36.337Z,60.82
2022-09-18T08:08:36.367Z,65.13
2022-09-18T08:09:36.298Z,61.95
2022-09-18T08:10:36.282Z,63.54
2022-09-18T08:11:36.276Z,63.46
2022-09-18T08:12:36.354Z,64.38
2022-09-18T08:13:36.260Z,63.40
2022-09-18T08:14:36.273Z,62.49
2022-09-18T08:15:36.252Z,62.86
2022-09-18T08:16:36.265Z,65.97
2022-09-18T08:17:36.217Z,63.39
2022-09-18T08:18:36.222Z,62.55
2022-09-18T08:19:36.253Z,64.94
2022-09-18T08:20:36.221Z,62.33
2022-09-18T08:21:36.224Z,65.40
2022-09-18T08:22:36.189Z,63.41
2022-09-18T08:23:36.173Z,64.42
2022-09-18T08:24:36.242Z,64.38
2022-09-18T08:25:36.180Z,63.15
2022-09-18T08:26:36.149Z,66.07
2022-09-18T08:27:36.164Z,67.49
2022-09-18T08:28:36.222Z,67.75
2022-09-18T08:29:36.128Z,67.28
2022-09-18T08:30:36.109Z,65.28
2022-09-18T08:31:36.220Z,62.86
2022-09-18T08:32:36.092Z,64.53
2022-09-18T08:33:36.108Z,66.24
2022-09-18T08:34:36.101Z,64.52
2022-09-18T08:35:36.085Z,66.14
2022-09-18T08:36:36.081Z,64.33
2022-09-18T08:37:36.096Z,64.72
2022-09-18T08:38:36.057Z,64.79
2022-09-18T08:39:36.050Z,63.11
2022-09-18T08:40:36.065Z,64.30
2022-09-18T08:41:36.036Z,64.67
2022-09-18T08:42:36.030Z,62.69
2022-09-18T08:43:36.035Z,63.17
2022-09-18T08:44:36.125Z,62.58
2022-09-18T08:45:36.012Z,62.77
2022-09-18T08:46:36.051Z,63.43
2022-09-18T08:47:35.972Z,64.61
2022-09-18T08:48:35.969Z,64.27
2022-09-18T08:49:35.985Z,63.45
2022-09-18T08:50:38.613Z,63.96
2022-09-18T08:51:36.043Z,64.72
2022-09-18T08:52:43.450Z,63.65
2022-09-18T08:53:35.931Z,63.24
2022-09-18T08:54:35.923Z,65.43
2022-09-18T08:55:35.917Z,65.66
2022-09-18T08:56:35.965Z,64.09
2022-09-18T08:57:35.944Z,64.42
2022-09-18T08:58:35.940Z,65.97
2022-09-18T08:59:35.917Z,63.82
2022-09-18T09:00:36.059Z,65.75
2022-09-18T09:01:35.986Z,64.55
2022-09-18T09:02:35.927Z,64.00
2022-09-18T09:03:35.894Z,65.08
2022-09-18T09:04:35.845Z,63.62
2022-09-18T09:05:35.858Z,64.83
2022-09-18T09:06:35.832Z,64.89
2022-09-18T09:07:35.831Z,64.65
2022-09-18T09:08:35.829Z,64.67
2022-09-18T09:09:35.799Z,62.87
2022-09-18T09:10:35.799Z,60.51
2022-09-18T09:11:35.831Z,62.44
2022-09-18T09:12:35.780Z,62.22
2022-09-18T09:13:35.796Z,62.93
2022-09-18T09:14:56.255Z,65.17
2022-09-18T09:15:36.764Z,63.77
2022-09-18T09:16:35.948Z,64.26
2022-09-18T09:17:35.749Z,64.50
2022-09-18T09:18:35.736Z,66.70
2022-09-18T09:19:35.759Z,63.98
2022-09-18T09:20:35.733Z,63.85
2022-09-18T09:21:35.715Z,64.73
2022-09-18T09:22:35.722Z,62.75
2022-09-18T09:23:36.891Z,65.05
2022-09-18T09:24:35.709Z,64.78
2022-09-18T09:25:35.972Z,64.51
2022-09-18T09:26:35.675Z,64.50
2022-09-18T09:27:35.675Z,64.52
2022-09-18T09:28:35.664Z,62.67
2022-09-18T09:29:35.684Z,62.99
2022-09-18T09:30:35.634Z,64.97
2022-09-18T09:31:35.723Z,63.97
2022-09-18T09:32:35.716Z,64.57
2022-09-18T09:33:35.636Z,65.93
2022-09-18T09:34:35.623Z,63.68
2022-09-18T09:35:35.613Z,63.08
2022-09-18T09:36:35.975Z,65.20
2022-09-18T09:37:35.588Z,65.81
2022-09-18T09:38:35.574Z,61.58
2022-09-18T09:39:35.569Z,63.21
2022-09-18T09:40:35.595Z,65.30
2022-09-18T09:41:35.544Z,64.59
2022-09-18T09:42:35.548Z,65.04
2022-09-18T09:43:35.533Z,64.22
2022-09-18T09:44:35.534Z,63.38
2022-09-18T09:45:35.530Z,62.77
2022-09-18T09:46:35.578Z,64.67
2022-09-18T09:47:35.514Z,64.21
2022-09-18T09:48:35.575Z,64.68
2022-09-18T09:49:35.489Z,61.77
2022-09-18T09:50:35.473Z,65.68
2022-09-18T09:51:35.470Z,65.39
2022-09-18T09:52:35.504Z,64.70
2022-09-18T09:53:35.454Z,65.26
2022-09-18T09:54:35.472Z,64.09
2022-09-18T09:55:35.437Z,64.70
2022-09-18T09:56:35.438Z,64.27
2022-09-18T09:57:35.507Z,64.35
2022-09-18T09:58:35.418Z,64.24
2022-09-18T09:59:35.684Z,63.92
2022-09-18T10:00:35.443Z,64.15
2022-09-18T10:01:36.525Z,65.28
2022-09-18T10:02:35.393Z,66.41
2022-09-18T10:03:35.382Z,63.90
2022-09-18T10:04:35.453Z,64.07
2022-09-18T10:05:35.371Z,63.60
2022-09-18T10:06:35.366Z,63.27
2022-09-18T10:07:35.357Z,60.00
2022-09-18T10:08:35.370Z,61.95
2022-09-18T10:09:35.334Z,62.85
2022-09-18T10:10:35.323Z,62.57
2022-09-18T10:11:35.308Z,60.48
2022-09-18T10:12:35.305Z,60.80
2022-09-18T10:13:35.327Z,59.59
2022-09-18T10:14:35.292Z,62.05
2022-09-18T10:15:35.288Z,61.84
2022-09-18T10:16:35.304Z,62.21
2022-09-18T10:17:35.265Z,59.22
2022-09-18T10:18:35.287Z,60.71
2022-09-18T10:19:35.261Z,60.08
2022-09-18T10:20:35.319Z,61.44
2022-09-18T10:21:35.224Z,61.51
2022-09-18T10:22:35.226Z,61.69
2022-09-18T10:23:35.223Z,61.94
2022-09-18T10:24:35.213Z,61.43
2022-09-18T10:25:35.261Z,60.86
2022-09-18T10:26:35.199Z,61.16
2022-09-18T10:27:35.192Z,61.61
2022-09-18T10:28:35.928Z,61.54
2022-09-18T10:29:36.078Z,61.55
2022-09-18T10:30:35.160Z,61.30
2022-09-18T10:31:35.208Z,60.11
2022-09-18T10:32:35.132Z,61.67
2022-09-18T10:33:35.123Z,62.05
2022-09-18T10:34:35.148Z,60.00
2022-09-18T10:35:35.112Z,60.97
2022-09-18T10:36:35.192Z,62.49
2022-09-18T10:37:35.114Z,60.11
2022-09-18T10:38:35.091Z,61.72
2022-09-18T10:39:35.077Z,62.44
2022-09-18T10:40:35.152Z,61.27
2022-09-18T10:41:35.073Z,60.97
2022-09-18T10:42:35.082Z,62.58
2022-09-18T10:43:35.065Z,62.02
2022-09-18T10:44:35.047Z,58.44
2022-09-18T10:45:35.046Z,61.62
2022-09-18T10:46:35.141Z,63.25
2022-09-18T10:47:35.033Z,62.84
2022-09-18T10:48:35.027Z,61.62
2022-09-18T10:49:35.000Z,60.77
2022-09-18T10:50:35.003Z,61.13
2022-09-18T10:51:34.976Z,61.00
2022-09-18T10:52:35.109Z,61.88
2022-09-18T10:53:34.976Z,62.48
2022-09-18T10:54:35.083Z,62.78
2022-09-18T10:55:34.955Z,62.13
2022-09-18T10:56:35.028Z,63.22
2022-09-18T10:57:34.962Z,61.80
2022-09-18T10:58:34.945Z,62.96
2022-09-18T10:59:34.923Z,63.02
2022-09-18T11:00:35.281Z,63.83
2022-09-18T11:01:35.018Z,62.36
2022-09-18T11:02:34.957Z,61.08
2022-09-18T11:03:34.885Z,63.47
2022-09-18T11:04:34.895Z,63.17
2022-09-18T11:05:34.868Z,62.44
2022-09-18T11:06:34.870Z,62.12
2022-09-18T11:07:34.872Z,61.14
2022-09-18T11:08:34.966Z,62.53
2022-09-18T11:09:34.842Z,64.00
2022-09-18T11:10:34.850Z,63.20
2022-09-18T11:11:34.830Z,65.68
2022-09-18T11:12:34.823Z,65.15
2022-09-18T11:13:34.801Z,61.71
2022-09-18T11:14:34.934Z,61.86
2022-09-18T11:15:34.814Z,63.13
2022-09-18T11:16:34.864Z,64.95
2022-09-18T11:17:34.781Z,63.87
2022-09-18T11:18:34.893Z,62.88
2022-09-18T11:19:34.866Z,62.84
2022-09-18T11:20:34.798Z,62.39
2022-09-18T11:21:34.746Z,63.25
2022-09-18T11:22:34.742Z,61.64
2022-09-18T11:23:34.788Z,63.28
2022-09-18T11:24:34.814Z,62.06
2022-09-18T11:25:35.064Z,62.57
2022-09-18T11:26:34.712Z,62.15
2022-09-18T11:27:34.716Z,63.53
2022-09-18T11:28:34.694Z,63.64
2022-09-18T11:29:34.677Z,62.71
2022-09-18T11:30:34.671Z,64.44
2022-09-18T11:31:34.705Z,61.55
2022-09-18T11:32:34.653Z,62.07
2022-09-18T11:33:34.639Z,61.57
2022-09-18T11:34:34.642Z,62.98
2022-09-18T11:35:34.629Z,63.00
2022-09-18T11:36:34.650Z,62.29
2022-09-18T11:37:34.615Z,60.93
2022-09-18T11:38:34.635Z,61.14
2022-09-18T11:39:34.596Z,60.46
2022-09-18T11:40:34.778Z,61.67
2022-09-18T11:41:34.610Z,60.02
2022-09-18T11:42:34.601Z,62.06
2022-09-18T11:43:34.565Z,60.66
2022-09-18T11:44:34.571Z,60.73
2022-09-18T11:45:34.546Z,60.39
2022-09-18T11:46:34.583Z,59.58
2022-09-18T11:47:34.520Z,61.43
2022-09-18T11:48:34.550Z,61.13
2022-09-18T11:49:34.599Z,60.55
2022-09-18T11:50:34.989Z,62.76
2022-09-18T11:51:34.515Z,62.75
2022-09-18T11:52:34.519Z,58.85
2022-09-18T11:53:34.520Z,61.59
2022-09-18T11:54:34.485Z,60.40
2022-09-18T11:55:34.529Z,60.74
2022-09-18T11:56:34.551Z,62.04
2022-09-18T11:57:34.480Z,60.78
2022-09-18T11:58:34.450Z,60.39
2022-09-18T11:59:34.451Z,61.47
2022-09-18T12:00:34.450Z,60.52
2022-09-18T12:01:34.439Z,60.60
2022-09-18T12:02:34.589Z,61.70
2022-09-18T12:03:34.530Z,63.18
2022-09-18T12:04:34.410Z,61.32
2022-09-18T12:05:34.396Z,60.51
2022-09-18T12:06:34.399Z,60.80
2022-09-18T12:07:35.622Z,61.29
2022-09-18T12:08:33.029Z,61.57
2022-09-18T12:09:33.034Z,62.38
2022-09-18T12:10:32.994Z,61.65
2022-09-18T12:11:33.004Z,60.07
2022-09-18T12:12:33.056Z,60.89
2022-09-18T12:13:32.953Z,60.50
2022-09-18T12:14:33.122Z,61.59
2022-09-18T12:15:32.986Z,62.44
2022-09-18T12:16:32.954Z,61.33
2022-09-18T12:17:32.940Z,62.26
2022-09-18T12:18:32.965Z,61.72
2022-09-18T12:19:32.912Z,61.80
2022-09-18T12:20:32.964Z,63.42
2022-09-18T12:21:32.897Z,62.24
2022-09-18T12:22:32.882Z,62.71
2022-09-18T12:23:32.902Z,63.08
2022-09-18T12:24:32.884Z,63.09
2022-09-18T12:25:32.854Z,62.93
2022-09-18T12:26:32.865Z,61.66
2022-09-18T12:27:32.830Z,60.08
2022-09-18T12:28:32.851Z,60.38
2022-09-18T12:29:32.827Z,61.50
2022-09-18T12:30:32.812Z,61.59
2022-09-18T12:31:32.904Z,60.74
2022-09-18T12:32:32.824Z,62.64
2022-09-18T12:33:34.356Z,62.42
2022-09-18T12:34:32.777Z,62.96
2022-09-18T12:35:32.820Z,62.41
2022-09-18T12:36:32.813Z,61.81
2022-09-18T12:37:32.743Z,62.80
2022-09-18T12:38:32.784Z,62.17
2022-09-18T12:39:33.404Z,61.14
2022-09-18T12:40:33.475Z,62.91
2022-09-18T12:41:33.383Z,62.94
2022-09-18T12:42:33.391Z,61.59
2022-09-18T12:43:33.366Z,60.47
2022-09-18T12:44:33.434Z,62.85
2022-09-18T12:45:33.390Z,62.07
2022-09-18T12:46:33.335Z,63.21
2022-09-18T12:47:33.334Z,61.74
2022-09-18T12:48:33.349Z,59.94
2022-09-18T12:49:33.309Z,62.31
2022-09-18T12:50:34.187Z,61.53
2022-09-18T12:51:33.292Z,59.28
2022-09-18T12:52:33.291Z,63.15
2022-09-18T12:53:33.265Z,61.60
2022-09-18T12:54:33.302Z,61.95
2022-09-18T12:55:33.255Z,60.00
2022-09-18T12:56:33.240Z,61.91
2022-09-18T12:57:33.227Z,61.87
2022-09-18T12:58:33.278Z,62.52
2022-09-18T12:59:33.213Z,63.25
2022-09-18T13:00:33.438Z,63.82
2022-09-18T13:01:33.224Z,62.04